createdAt,value
2023-05-15T00:00:52.000Z,5.90
2023-05-15T00:01:51.989Z,6.30
2023-05-15T00:02:52.064Z,5.90
2023-05-15T00:03:52.087Z,6.10
2023-05-15T00:04:51.994Z,6.10
2023-05-15T00:05:51.949Z,6.30
2023-05-15T00:06:51.936Z,6.30
2023-05-15T00:07:51.956Z,5.70
2023-05-15T00:08:51.940Z,5.50
2023-05-15T00:09:51.899Z,5.70
2023-05-15T00:11:00.803Z,5.90
2023-05-15T00:11:52.891Z,6.00
2023-05-15T00:12:51.913Z,5.80
2023-05-15T00:13:51.849Z,6.00
2023-05-15T00:14:51.856Z,5.80
2023-05-15T00:15:51.895Z,6.30
2023-05-15T00:16:51.864Z,6.30
2023-05-15T00:17:51.879Z,6.00
2023-05-15T00:18:51.869Z,6.30
2023-05-15T00:19:51.792Z,6.30
2023-05-15T00:20:51.771Z,5.90
2023-05-15T00:21:51.804Z,6.20
2023-05-15T00:23:51.737Z,6.70
2023-05-15T00:24:51.726Z,6.20
2023-05-15T00:25:51.721Z,5.40
2023-05-15T00:26:51.726Z,6.60
2023-05-15T00:27:51.705Z,6.90
2023-05-15T00:28:51.720Z,6.10
2023-05-15T00:29:51.688Z,6.10
2023-05-15T00:30:51.684Z,6.60
2023-05-15T00:31:51.777Z,6.40
2023-05-15T00:32:51.697Z,6.90
2023-05-15T00:33:51.625Z,6.50
2023-05-15T00:34:51.633Z,6.50
2023-05-15T00:35:51.633Z,6.50
2023-05-15T00:36:51.608Z,6.70
2023-05-15T00:37:51.600Z,6.40
2023-05-15T00:38:51.586Z,6.50
2023-05-15T00:39:51.582Z,7.30
2023-05-15T00:40:51.582Z,6.60
2023-05-15T00:41:51.549Z,6.70
2023-05-15T00:42:51.541Z,6.70
2023-05-15T00:43:51.524Z,7.00
2023-05-15T00:44:51.557Z,7.60
2023-05-15T00:45:51.529Z,6.60
2023-05-15T00:46:51.494Z,6.60
2023-05-15T00:47:51.508Z,6.60
2023-05-15T00:48:51.498Z,6.90
2023-05-15T00:49:51.475Z,7.30
2023-05-15T00:50:51.473Z,7.10
2023-05-15T00:51:51.438Z,6.40
2023-05-15T00:52:51.441Z,6.60
2023-05-15T00:53:51.485Z,6.00
2023-05-15T00:54:51.418Z,6.30
2023-05-15T00:55:51.392Z,7.10
2023-05-15T00:56:51.383Z,6.30
2023-05-15T00:57:51.368Z,7.10
2023-05-15T00:58:51.380Z,6.70
2023-05-15T00:59:51.339Z,6.40
2023-05-15T01:00:51.395Z,6.60
2023-05-15T01:01:51.337Z,6.40
2023-05-15T01:02:51.384Z,6.60
2023-05-15T01:03:51.315Z,6.90
2023-05-15T01:04:51.297Z,7.00
2023-05-15T01:05:51.281Z,6.50
2023-05-15T01:06:51.809Z,7.00
2023-05-15T01:07:51.284Z,7.30
2023-05-15T01:08:51.267Z,6.60
2023-05-15T01:09:51.262Z,6.40
2023-05-15T01:10:51.218Z,6.80
2023-05-15T01:11:51.218Z,6.80
2023-05-15T01:12:51.225Z,6.90
2023-05-15T01:13:51.213Z,6.40
2023-05-15T01:14:51.175Z,6.70
2023-05-15T01:15:51.179Z,6.60
2023-05-15T01:16:51.177Z,6.50
2023-05-15T01:17:51.230Z,7.10
2023-05-15T01:18:51.206Z,7.00
2023-05-15T01:19:51.287Z,6.80
2023-05-15T01:20:51.102Z,7.20
2023-05-15T01:21:51.118Z,7.20
2023-05-15T01:22:51.100Z,6.90
2023-05-15T01:23:51.071Z,6.70
2023-05-15T01:24:51.082Z,7.10
2023-05-15T01:25:51.057Z,6.90
2023-05-15T01:26:51.092Z,6.70
2023-05-15T01:27:51.065Z,7.10
2023-05-15T01:28:51.013Z,6.90
2023-05-15T01:29:51.012Z,6.90
2023-05-15T01:30:51.009Z,6.80
2023-05-15T01:31:51.024Z,6.60
2023-05-15T01:32:51.036Z,7.10
2023-05-15T01:33:50.979Z,6.70
2023-05-15T01:34:50.969Z,6.30
2023-05-15T01:35:50.977Z,7.10
2023-05-15T01:36:50.951Z,6.80
2023-05-15T01:37:50.911Z,6.90
2023-05-15T01:38:50.905Z,7.00
2023-05-15T01:39:50.901Z,6.50
2023-05-15T01:40:50.928Z,6.70
2023-05-15T01:43:02.185Z,6.20
2023-05-15T01:44:01.887Z,6.70
2023-05-15T01:45:01.882Z,6.10
2023-05-15T01:46:01.910Z,6.70
2023-05-15T01:47:01.880Z,6.70
2023-05-15T01:48:01.907Z,6.90
2023-05-15T01:49:01.833Z,7.60
2023-05-15T01:50:01.974Z,7.30
2023-05-15T01:51:01.835Z,7.10
2023-05-15T01:52:01.797Z,7.00
2023-05-15T01:53:01.785Z,7.20
2023-05-15T01:54:01.774Z,7.60
2023-05-15T01:55:01.787Z,7.30
2023-05-15T01:56:01.744Z,7.90
2023-05-15T01:57:01.747Z,7.30
2023-05-15T01:58:01.719Z,7.10
2023-05-15T01:59:01.708Z,7.70
2023-05-15T02:00:01.734Z,7.50
2023-05-15T02:01:01.699Z,6.80
2023-05-15T02:02:01.728Z,7.00
2023-05-15T02:03:01.758Z,7.20
2023-05-15T02:04:01.856Z,7.10
2023-05-15T02:05:01.659Z,7.40
2023-05-15T02:06:01.632Z,7.30
2023-05-15T02:07:01.626Z,7.00
2023-05-15T02:08:01.633Z,7.00
2023-05-15T02:09:01.631Z,6.40
2023-05-15T02:10:01.607Z,7.70
2023-05-15T02:11:01.586Z,7.70
2023-05-15T02:12:01.565Z,7.60
2023-05-15T02:13:01.556Z,7.60
2023-05-15T02:14:01.580Z,7.70
2023-05-15T02:15:01.528Z,7.80
2023-05-15T02:16:01.560Z,8.10
2023-05-15T02:17:01.515Z,7.90
2023-05-15T02:18:01.571Z,8.50
2023-05-15T02:19:01.569Z,8.00
2023-05-15T02:20:01.542Z,8.20
2023-05-15T02:21:01.481Z,7.80
2023-05-15T02:22:01.456Z,7.80
2023-05-15T02:23:01.464Z,8.30
2023-05-15T02:24:01.445Z,8.20
2023-05-15T02:25:01.425Z,8.60
2023-05-15T02:26:01.422Z,8.60
2023-05-15T02:27:01.407Z,8.40
2023-05-15T02:28:01.404Z,8.40
2023-05-15T02:29:01.373Z,8.50
2023-05-15T02:30:01.390Z,9.40
2023-05-15T02:31:01.359Z,8.50
2023-05-15T02:32:01.389Z,9.10
2023-05-15T02:33:01.521Z,8.70
2023-05-15T02:34:01.330Z,8.00
2023-05-15T02:35:01.320Z,9.10
2023-05-15T02:36:01.340Z,8.80
2023-05-15T02:37:01.306Z,8.10
2023-05-15T02:38:01.279Z,8.30
2023-05-15T02:39:01.253Z,8.00
2023-05-15T02:40:01.313Z,8.20
2023-05-15T02:41:01.246Z,8.00
2023-05-15T02:42:01.271Z,8.20
2023-05-15T02:43:01.242Z,8.80
2023-05-15T02:44:01.207Z,9.40
2023-05-15T02:45:01.198Z,9.50
2023-05-15T02:46:01.236Z,9.50
2023-05-15T02:47:01.206Z,9.50
2023-05-15T02:48:01.212Z,8.70
2023-05-15T02:49:01.155Z,9.30
2023-05-15T02:50:01.131Z,9.70
2023-05-15T02:51:01.187Z,9.20
2023-05-15T02:52:01.172Z,9.40
2023-05-15T02:53:01.108Z,9.10
2023-05-15T02:54:01.108Z,9.10
2023-05-15T02:55:01.078Z,8.70
2023-05-15T02:56:01.105Z,8.80
2023-05-15T02:57:01.070Z,8.80
2023-05-15T02:58:01.046Z,9.10
2023-05-15T02:59:01.036Z,8.20
2023-05-15T03:00:01.348Z,8.30
2023-05-15T03:01:01.099Z,8.60
2023-05-15T03:02:01.012Z,9.30
2023-05-15T03:03:01.017Z,8.80
2023-05-15T03:04:00.990Z,8.90
2023-05-15T03:05:00.990Z,8.80
2023-05-15T03:06:01.023Z,8.30
2023-05-15T03:07:00.959Z,9.80
2023-05-15T03:08:00.949Z,8.00
2023-05-15T03:09:00.926Z,8.80
2023-05-15T03:10:00.940Z,9.50
2023-05-15T03:11:00.896Z,9.00
2023-05-15T03:12:00.893Z,9.00
2023-05-15T03:13:00.911Z,8.60
2023-05-15T03:14:00.874Z,8.80
2023-05-15T03:15:00.884Z,8.20
2023-05-15T03:16:00.855Z,9.10
2023-05-15T03:17:00.863Z,8.80
2023-05-15T03:18:00.838Z,9.50
2023-05-15T03:19:00.905Z,9.50
2023-05-15T03:20:00.806Z,9.10
2023-05-15T03:21:00.810Z,9.20
2023-05-15T03:22:00.799Z,8.40
2023-05-15T03:23:00.807Z,9.30
2023-05-15T03:24:00.796Z,10.00
2023-05-15T03:25:00.755Z,9.50
2023-05-15T03:26:00.732Z,10.00
2023-05-15T03:27:00.725Z,8.80
2023-05-15T03:28:00.774Z,10.00
2023-05-15T03:29:00.736Z,10.20
2023-05-15T03:30:00.682Z,9.90
2023-05-15T03:31:00.711Z,8.90
2023-05-15T03:32:00.661Z,7.40
2023-05-15T03:33:00.718Z,7.90
2023-05-15T03:34:00.649Z,8.30
2023-05-15T03:35:00.618Z,8.30
2023-05-15T03:36:00.623Z,8.40
2023-05-15T03:37:00.609Z,8.30
2023-05-15T03:38:00.628Z,8.10
2023-05-15T03:39:00.596Z,8.60
2023-05-15T03:40:00.606Z,8.80
2023-05-15T03:41:00.569Z,7.50
2023-05-15T03:42:00.581Z,7.60
2023-05-15T03:43:00.574Z,8.50
2023-05-15T03:44:00.555Z,7.30
2023-05-15T03:45:00.520Z,8.40
2023-05-15T03:46:00.493Z,7.90
2023-05-15T03:47:00.540Z,8.30
2023-05-15T03:48:00.485Z,7.90
2023-05-15T03:49:00.471Z,8.00
2023-05-15T03:50:00.459Z,7.90
2023-05-15T03:51:00.455Z,7.50
2023-05-15T03:52:00.451Z,8.10
2023-05-15T03:53:00.423Z,8.30
2023-05-15T03:54:00.435Z,8.40
2023-05-15T03:55:00.435Z,8.00
2023-05-15T03:56:00.434Z,7.10
2023-05-15T03:57:00.526Z,7.40
2023-05-15T03:58:00.374Z,7.50
2023-05-15T03:59:00.359Z,8.20
2023-05-15T04:00:00.361Z,8.10
2023-05-15T04:01:00.364Z,8.20
2023-05-15T04:02:04.734Z,7.60
2023-05-15T04:03:01.430Z,8.50
2023-05-15T04:04:00.303Z,8.00
2023-05-15T04:05:00.366Z,7.60
2023-05-15T04:06:00.296Z,8.00
2023-05-15T04:07:00.274Z,8.00
2023-05-15T04:08:00.260Z,8.00
2023-05-15T04:09:00.228Z,8.00
2023-05-15T04:10:00.236Z,8.00
2023-05-15T04:11:00.231Z,8.20
2023-05-15T04:12:00.218Z,8.40
2023-05-15T04:13:00.201Z,7.60
2023-05-15T04:14:00.181Z,8.00
2023-05-15T04:15:00.188Z,8.20
2023-05-15T04:16:00.229Z,8.90
2023-05-15T04:17:00.159Z,7.90
2023-05-15T04:18:00.225Z,7.70
2023-05-15T04:19:00.234Z,7.60
2023-05-15T04:20:00.116Z,8.40
2023-05-15T04:21:00.142Z,8.00
2023-05-15T04:22:00.098Z,8.40
2023-05-15T04:23:00.104Z,8.50
2023-05-15T04:24:00.101Z,9.00
2023-05-15T04:25:00.070Z,7.60
2023-05-15T04:26:00.058Z,8.40
2023-05-15T04:27:00.075Z,7.90
2023-05-15T04:28:00.049Z,7.80
2023-05-15T04:29:03.898Z,8.00
2023-05-15T04:29:59.998Z,7.80
2023-05-15T04:30:59.996Z,7.50
2023-05-15T04:32:00.022Z,7.60
2023-05-15T04:33:00.019Z,7.10
2023-05-15T04:33:59.968Z,8.30
2023-05-15T04:34:59.935Z,8.20
2023-05-15T04:35:59.923Z,8.00
2023-05-15T04:36:59.913Z,7.30
2023-05-15T04:38:00.032Z,7.40
2023-05-15T04:38:59.910Z,7.80
2023-05-15T04:39:59.882Z,7.30
2023-05-15T04:40:59.894Z,7.80
2023-05-15T04:41:59.864Z,7.50
2023-05-15T04:42:59.897Z,7.70
2023-05-15T04:43:59.854Z,8.20
2023-05-15T04:44:59.837Z,7.30
2023-05-15T04:45:59.840Z,7.30
2023-05-15T04:46:59.808Z,8.00
2023-05-15T04:47:59.835Z,8.40
2023-05-15T04:48:59.781Z,7.90
2023-05-15T04:49:59.765Z,7.60
2023-05-15T04:50:59.831Z,7.40
2023-05-15T04:51:59.772Z,7.80
2023-05-15T04:52:59.747Z,7.40
2023-05-15T04:53:59.722Z,7.50
2023-05-15T04:54:59.711Z,7.10
2023-05-15T04:55:59.703Z,7.00
2023-05-15T04:56:59.757Z,7.70
2023-05-15T04:57:59.677Z,7.80
2023-05-15T04:58:59.673Z,7.60
2023-05-15T04:59:59.681Z,7.40
2023-05-15T05:01:59.696Z,7.30
2023-05-15T05:02:59.711Z,7.10
2023-05-15T05:03:59.642Z,7.10
2023-05-15T05:04:59.601Z,7.20
2023-05-15T05:05:59.597Z,7.10
2023-05-15T05:06:59.816Z,7.20
2023-05-15T05:07:59.566Z,7.30
2023-05-15T05:08:59.552Z,7.20
2023-05-15T05:09:59.541Z,7.90
2023-05-15T05:10:59.548Z,7.00
2023-05-15T05:11:59.521Z,7.40
2023-05-15T05:12:59.549Z,7.40
2023-05-15T05:13:59.540Z,7.80
2023-05-15T05:14:59.491Z,7.10
2023-05-15T05:15:59.610Z,7.60
2023-05-15T05:16:59.463Z,7.40
2023-05-15T05:17:59.519Z,7.10
2023-05-15T05:18:59.480Z,7.70
2023-05-15T05:19:59.456Z,7.20
2023-05-15T05:20:59.831Z,7.20
2023-05-15T05:21:59.414Z,6.70
2023-05-15T05:22:59.408Z,6.70
2023-05-15T05:23:59.397Z,7.10
2023-05-15T05:24:59.392Z,6.60
2023-05-15T05:25:59.365Z,6.70
2023-05-15T05:26:59.365Z,7.70
2023-05-15T05:27:59.365Z,7.80
2023-05-15T05:28:59.329Z,7.20
2023-05-15T05:29:59.335Z,7.10
2023-05-15T05:30:59.388Z,7.50
2023-05-15T05:31:59.379Z,7.00
2023-05-15T05:32:59.354Z,7.10
2023-05-15T05:33:59.302Z,7.60
2023-05-15T05:34:59.281Z,7.30
2023-05-15T05:35:59.263Z,7.80
2023-05-15T05:36:59.285Z,8.90
2023-05-15T05:37:59.271Z,8.20
2023-05-15T05:38:59.227Z,7.10
2023-05-15T05:39:59.241Z,7.60
2023-05-15T05:40:59.192Z,7.80
2023-05-15T05:41:59.272Z,7.20
2023-05-15T05:42:59.174Z,7.80
2023-05-15T05:43:59.217Z,7.90
2023-05-15T05:44:59.145Z,7.30
2023-05-15T05:45:59.192Z,7.20
2023-05-15T05:46:59.139Z,7.10
2023-05-15T05:47:59.189Z,7.10
2023-05-15T05:48:59.135Z,7.10
2023-05-15T05:49:59.105Z,6.50
2023-05-15T05:50:59.086Z,7.10
2023-05-15T05:51:59.067Z,7.20
2023-05-15T05:52:59.121Z,7.90
2023-05-15T05:53:59.059Z,7.40
2023-05-15T05:54:59.029Z,7.60
2023-05-15T05:55:59.024Z,7.10
2023-05-15T05:56:59.009Z,7.50
2023-05-15T05:57:59.016Z,7.40
2023-05-15T05:58:58.984Z,7.20
2023-05-15T05:59:58.976Z,7.00
2023-05-15T06:00:58.972Z,7.10
2023-05-15T06:01:59.010Z,6.80
2023-05-15T06:02:59.063Z,6.70
2023-05-15T06:03:59.028Z,6.40
2023-05-15T06:04:58.917Z,7.00
2023-05-15T06:05:58.913Z,6.80
2023-05-15T06:06:58.906Z,6.70
2023-05-15T06:07:58.888Z,6.40
2023-05-15T06:08:58.884Z,7.00
2023-05-15T06:09:58.860Z,7.20
2023-05-15T06:10:58.847Z,6.70
2023-05-15T06:11:58.865Z,7.20
2023-05-15T06:12:58.823Z,6.40
2023-05-15T06:13:58.823Z,7.10
2023-05-15T06:14:58.816Z,6.90
2023-05-15T06:15:58.814Z,7.30
2023-05-15T06:16:58.873Z,7.40
2023-05-15T06:17:58.861Z,6.90
2023-05-15T06:18:58.793Z,7.10
2023-05-15T06:19:58.802Z,7.90
2023-05-15T06:20:58.752Z,7.50
2023-05-15T06:21:58.751Z,7.50
2023-05-15T06:22:58.733Z,7.60
2023-05-15T06:23:58.700Z,6.90
2023-05-15T06:24:58.702Z,7.50
2023-05-15T06:25:58.832Z,7.10
2023-05-15T06:26:58.670Z,7.80
2023-05-15T06:27:58.661Z,7.50
2023-05-15T06:28:58.649Z,7.40
2023-05-15T06:29:59.030Z,7.40
2023-05-15T06:30:58.683Z,7.90
2023-05-15T06:31:58.647Z,8.00
2023-05-15T06:32:58.721Z,7.70
2023-05-15T06:33:58.595Z,7.60
2023-05-15T06:34:58.605Z,7.80
2023-05-15T06:35:58.799Z,7.60
2023-05-15T06:36:58.561Z,8.00
2023-05-15T06:37:58.840Z,7.50
2023-05-15T06:38:58.533Z,7.80
2023-05-15T06:39:58.543Z,8.30
2023-05-15T06:40:58.517Z,7.90
2023-05-15T06:41:58.505Z,7.70
2023-05-15T06:42:58.503Z,8.10
2023-05-15T06:43:58.494Z,7.70
2023-05-15T06:44:58.504Z,7.70
2023-05-15T06:45:58.462Z,7.80
2023-05-15T06:46:58.478Z,7.50
2023-05-15T06:48:01.398Z,7.90
2023-05-15T06:48:58.493Z,7.70
2023-05-15T06:49:58.413Z,7.50
2023-05-15T06:50:58.405Z,7.70
2023-05-15T06:51:58.418Z,8.30
2023-05-15T06:52:58.383Z,7.60
2023-05-15T06:53:58.390Z,8.00
2023-05-15T06:54:58.359Z,7.90
2023-05-15T06:55:58.346Z,7.50
2023-05-15T06:56:58.339Z,7.60
2023-05-15T06:57:58.338Z,7.70
2023-05-15T06:58:58.327Z,8.00
2023-05-15T06:59:58.297Z,7.30
2023-05-15T07:00:59.481Z,7.50
2023-05-15T07:01:58.337Z,7.30
2023-05-15T07:02:58.389Z,7.50
2023-05-15T07:03:58.255Z,7.80
2023-05-15T07:04:58.287Z,7.30
2023-05-15T07:05:58.237Z,7.50
2023-05-15T07:06:58.232Z,7.80
2023-05-15T07:07:58.314Z,7.30
2023-05-15T07:08:58.194Z,7.70
2023-05-15T07:09:58.192Z,7.60
2023-05-15T07:10:58.174Z,7.00
2023-05-15T07:11:58.184Z,7.40
2023-05-15T07:12:58.164Z,7.20
2023-05-15T07:13:58.149Z,7.50
2023-05-15T07:14:58.146Z,6.60
2023-05-15T07:15:58.122Z,7.30
2023-05-15T07:16:58.157Z,7.50
2023-05-15T07:17:58.256Z,7.20
2023-05-15T07:18:58.118Z,7.70
2023-05-15T07:19:58.082Z,7.60
2023-05-15T07:20:58.066Z,7.20
2023-05-15T07:21:58.068Z,7.20
2023-05-15T07:22:58.036Z,7.90
2023-05-15T07:23:58.046Z,7.60
2023-05-15T07:24:58.023Z,7.00
2023-05-15T07:25:58.028Z,7.40
2023-05-15T07:26:59.264Z,7.40
2023-05-15T07:27:57.997Z,7.40
2023-05-15T07:28:57.977Z,7.10
2023-05-15T07:29:57.963Z,7.40
2023-05-15T07:30:57.965Z,6.60
2023-05-15T07:31:58.083Z,7.40
2023-05-15T07:32:57.964Z,7.20
2023-05-15T07:33:57.914Z,7.50
2023-05-15T07:34:57.926Z,7.00
2023-05-15T07:35:57.909Z,7.30
2023-05-15T07:36:57.880Z,7.10
2023-05-15T07:37:57.894Z,6.90
2023-05-15T07:38:57.864Z,7.60
2023-05-15T07:39:57.962Z,6.80
2023-05-15T07:40:57.846Z,6.40
2023-05-15T07:41:57.834Z,7.10
2023-05-15T07:42:57.807Z,6.50
2023-05-15T07:43:57.800Z,6.50
2023-05-15T07:44:57.835Z,6.50
2023-05-15T07:45:57.851Z,7.10
2023-05-15T07:46:57.762Z,6.60
2023-05-15T07:47:57.828Z,6.40
2023-05-15T07:48:57.745Z,6.60
2023-05-15T07:49:57.761Z,6.50
2023-05-15T07:50:57.728Z,6.90
2023-05-15T07:51:57.723Z,6.00
2023-05-15T07:52:57.697Z,6.60
2023-05-15T07:53:57.984Z,6.20
2023-05-15T07:54:57.686Z,7.10
2023-05-15T07:55:57.745Z,6.40
2023-05-15T07:56:57.654Z,6.10
2023-05-15T07:57:57.642Z,6.20
2023-05-15T07:58:57.720Z,6.50
2023-05-15T07:59:57.617Z,6.90
2023-05-15T08:00:57.605Z,6.60
2023-05-15T08:01:57.614Z,6.90
2023-05-15T08:02:57.630Z,7.00
2023-05-15T08:03:57.684Z,7.30
2023-05-15T08:04:57.569Z,7.20
2023-05-15T08:05:57.558Z,6.80
2023-05-15T08:06:57.558Z,6.80
2023-05-15T08:07:57.553Z,6.70
2023-05-15T08:08:57.547Z,7.10
2023-05-15T08:09:57.507Z,6.90
2023-05-15T08:10:57.494Z,6.80
2023-05-15T08:11:57.531Z,6.70
2023-05-15T08:12:57.487Z,6.40
2023-05-15T08:13:57.517Z,7.00
2023-05-15T08:14:57.450Z,6.80
2023-05-15T08:15:57.493Z,6.30
2023-05-15T08:16:57.426Z,6.20
2023-05-15T08:17:57.504Z,6.30
2023-05-15T08:18:57.444Z,6.70
2023-05-15T08:19:57.394Z,6.50
2023-05-15T08:20:57.378Z,6.60
2023-05-15T08:21:57.432Z,6.20
2023-05-15T08:22:57.374Z,6.00
2023-05-15T08:23:57.378Z,6.60
2023-05-15T08:24:57.336Z,6.50
2023-05-15T08:25:57.328Z,6.00
2023-05-15T08:26:57.335Z,6.70
2023-05-15T08:27:57.319Z,6.00
2023-05-15T08:28:57.292Z,6.30
2023-05-15T08:29:57.284Z,6.90
2023-05-15T08:30:57.298Z,6.00
2023-05-15T08:31:57.272Z,5.80
2023-05-15T08:32:57.303Z,6.40
2023-05-15T08:33:57.247Z,5.90
2023-05-15T08:34:57.224Z,5.90
2023-05-15T08:35:57.346Z,6.00
2023-05-15T08:36:57.211Z,5.80
2023-05-15T08:37:57.197Z,5.40
2023-05-15T08:38:57.178Z,5.60
2023-05-15T08:39:57.174Z,5.20
2023-05-15T08:40:57.162Z,5.40
2023-05-15T08:41:57.145Z,5.40
2023-05-15T08:42:57.146Z,5.30
2023-05-15T08:43:57.170Z,5.60
2023-05-15T08:44:57.113Z,5.10
2023-05-15T08:45:57.135Z,5.20
2023-05-15T08:46:57.139Z,4.80
2023-05-15T08:47:57.138Z,5.10
2023-05-15T08:48:57.123Z,4.80
2023-05-15T08:51:07.759Z,5.10
2023-05-15T08:52:07.737Z,5.20
2023-05-15T08:53:07.743Z,4.80
2023-05-15T08:54:07.715Z,5.20
2023-05-15T08:55:07.727Z,4.70
2023-05-15T08:56:07.694Z,5.00
2023-05-15T08:57:07.683Z,5.20
2023-05-15T08:58:07.674Z,5.00
2023-05-15T08:59:07.772Z,4.60
2023-05-15T09:00:08.956Z,5.40
2023-05-15T09:01:07.649Z,5.10
2023-05-15T09:02:07.684Z,4.80
2023-05-15T09:03:07.701Z,4.70
2023-05-15T09:04:07.796Z,5.00
2023-05-15T09:05:07.600Z,4.90
2023-05-15T09:06:07.582Z,4.50
2023-05-15T09:07:07.581Z,4.80
2023-05-15T09:08:07.567Z,4.50
2023-05-15T09:09:07.576Z,4.40
2023-05-15T09:10:07.538Z,4.90
2023-05-15T09:11:07.533Z,4.90
2023-05-15T09:12:07.532Z,4.80
2023-05-15T09:13:07.557Z,4.50
2023-05-15T09:14:07.670Z,4.90
2023-05-15T09:15:07.506Z,4.80
2023-05-15T09:16:07.478Z,4.80
2023-05-15T09:17:07.550Z,4.80
2023-05-15T09:18:07.573Z,4.50
2023-05-15T09:19:07.507Z,5.00
2023-05-15T09:20:07.445Z,4.40
2023-05-15T09:21:07.427Z,4.90
2023-05-15T09:22:07.409Z,4.60
2023-05-15T09:23:07.410Z,5.00
2023-05-15T09:24:07.385Z,4.90
2023-05-15T09:25:07.374Z,4.70
2023-05-15T09:26:07.364Z,4.60
2023-05-15T09:27:07.373Z,4.80
2023-05-15T09:28:07.370Z,4.70
2023-05-15T09:29:07.348Z,4.20
2023-05-15T09:30:07.323Z,4.50
2023-05-15T09:31:07.325Z,4.50
2023-05-15T09:32:07.379Z,4.70
2023-05-15T09:33:07.381Z,4.70
2023-05-15T09:34:07.278Z,4.60
2023-05-15T09:35:07.266Z,4.40
2023-05-15T09:36:07.254Z,4.80
2023-05-15T09:37:07.258Z,4.60
2023-05-15T09:38:07.231Z,4.70
2023-05-15T09:39:07.221Z,4.70
2023-05-15T09:40:07.208Z,4.40
2023-05-15T09:41:07.227Z,4.90
2023-05-15T09:42:07.207Z,4.80
2023-05-15T09:43:07.187Z,4.10
2023-05-15T09:44:07.166Z,4.60
2023-05-15T09:45:07.170Z,4.60
2023-05-15T09:46:07.194Z,4.30
2023-05-15T09:47:07.233Z,4.30
2023-05-15T09:48:07.275Z,4.60
2023-05-15T09:49:07.107Z,4.50
2023-05-15T09:50:07.100Z,4.00
2023-05-15T09:51:07.111Z,4.20
2023-05-15T09:52:07.077Z,4.00
2023-05-15T09:53:07.069Z,4.50
2023-05-15T09:54:07.057Z,4.10
2023-05-15T09:55:07.069Z,4.50
2023-05-15T09:56:07.054Z,4.50
2023-05-15T09:57:07.045Z,4.50
2023-05-15T09:58:07.022Z,4.20
2023-05-15T09:59:07.002Z,3.80
2023-05-15T10:00:07.017Z,3.80
2023-05-15T10:01:06.995Z,3.90
2023-05-15T10:02:06.968Z,3.70
2023-05-15T10:03:07.078Z,3.60
2023-05-15T10:04:06.962Z,3.90
2023-05-15T10:05:06.974Z,3.70
2023-05-15T10:06:07.009Z,3.90
2023-05-15T10:07:06.926Z,4.40
2023-05-15T10:08:06.902Z,4.20
2023-05-15T10:09:06.912Z,4.40
2023-05-15T10:10:06.897Z,4.00
2023-05-15T10:11:06.882Z,3.70
2023-05-15T10:12:06.860Z,4.10
2023-05-15T10:13:06.851Z,3.60
2023-05-15T10:14:06.853Z,3.60
2023-05-15T10:15:06.824Z,3.60
2023-05-15T10:16:06.838Z,3.60
2023-05-15T10:17:06.809Z,3.90
2023-05-15T10:18:06.828Z,3.70
2023-05-15T10:19:07.012Z,3.40
2023-05-15T10:20:06.769Z,3.50
2023-05-15T10:21:06.774Z,3.30
2023-05-15T10:22:06.745Z,3.60
2023-05-15T10:23:06.777Z,3.70
2023-05-15T10:24:06.756Z,3.70
2023-05-15T10:25:06.752Z,3.70
2023-05-15T10:26:06.701Z,3.40
2023-05-15T10:27:06.693Z,3.90
2023-05-15T10:28:06.698Z,3.90
2023-05-15T10:29:06.674Z,3.90
2023-05-15T10:30:06.661Z,3.80
2023-05-15T10:31:06.728Z,3.60
2023-05-15T10:32:06.643Z,3.30
2023-05-15T10:33:06.684Z,3.70
2023-05-15T10:34:06.626Z,3.60
2023-05-15T10:35:06.656Z,3.70
2023-05-15T10:36:06.590Z,3.80
2023-05-15T10:37:06.599Z,3.70
2023-05-15T10:38:06.765Z,3.50
2023-05-15T10:39:06.573Z,3.40
2023-05-15T10:40:06.547Z,4.10
2023-05-15T10:41:17.346Z,3.50
2023-05-15T10:42:07.540Z,3.60
2023-05-15T10:43:06.520Z,4.00
2023-05-15T10:44:06.526Z,3.70
2023-05-15T10:45:06.488Z,3.80
2023-05-15T10:46:06.475Z,3.60
2023-05-15T10:47:06.529Z,3.90
2023-05-15T10:48:06.552Z,3.50
2023-05-15T10:49:06.466Z,3.30
2023-05-15T10:50:06.435Z,3.50
2023-05-15T10:51:06.461Z,3.90
2023-05-15T10:52:06.436Z,3.80
2023-05-15T10:53:06.407Z,3.50
2023-05-15T10:54:06.412Z,3.40
2023-05-15T10:55:06.378Z,3.20
2023-05-15T10:56:06.445Z,3.30
2023-05-15T10:57:06.356Z,3.50
2023-05-15T10:58:06.345Z,3.50
2023-05-15T10:59:06.348Z,4.00
2023-05-15T11:00:06.326Z,3.70
2023-05-15T11:01:06.362Z,3.60
2023-05-15T11:02:06.298Z,3.50
2023-05-15T11:03:06.362Z,3.70
2023-05-15T11:04:06.295Z,3.90
2023-05-15T11:05:06.291Z,3.80
2023-05-15T11:06:06.282Z,3.30
2023-05-15T11:07:06.275Z,3.50
2023-05-15T11:08:06.226Z,3.30
2023-05-15T11:09:06.218Z,3.40
2023-05-15T11:10:06.261Z,3.40
2023-05-15T11:11:06.203Z,3.70
2023-05-15T11:12:06.208Z,3.80
2023-05-15T11:13:06.174Z,3.30
2023-05-15T11:14:06.196Z,3.80
2023-05-15T11:15:06.169Z,3.70
2023-05-15T11:16:06.134Z,3.80
2023-05-15T11:17:06.265Z,3.80
2023-05-15T11:18:06.147Z,4.00
2023-05-15T11:19:06.188Z,4.20
2023-05-15T11:20:06.094Z,3.70
2023-05-15T11:21:06.085Z,3.60
2023-05-15T11:22:06.077Z,4.00
2023-05-15T11:23:06.081Z,3.50
2023-05-15T11:24:06.064Z,3.60
2023-05-15T11:25:06.056Z,3.40
2023-05-15T11:26:06.031Z,3.30
2023-05-15T11:27:06.053Z,3.60
2023-05-15T11:28:06.005Z,4.20
2023-05-15T11:29:06.011Z,3.90
2023-05-15T11:30:05.990Z,3.90
2023-05-15T11:31:06.011Z,3.10
2023-05-15T11:32:05.963Z,3.60
2023-05-15T11:33:06.010Z,3.80
2023-05-15T11:34:06.242Z,3.50
2023-05-15T11:35:05.926Z,3.50
2023-05-15T11:36:05.908Z,3.90
2023-05-15T11:37:05.900Z,3.70
2023-05-15T11:38:05.904Z,3.70
2023-05-15T11:39:05.912Z,3.90
2023-05-15T11:40:05.866Z,3.50
2023-05-15T11:41:05.858Z,3.70
2023-05-15T11:42:05.849Z,3.70
2023-05-15T11:43:05.866Z,3.60
2023-05-15T11:44:05.829Z,3.40
2023-05-15T11:45:05.818Z,3.50
2023-05-15T11:46:05.858Z,3.40
2023-05-15T11:47:05.867Z,4.50
2023-05-15T11:48:06.193Z,3.50
2023-05-15T11:49:05.774Z,3.70
2023-05-15T11:50:05.781Z,4.10
2023-05-15T11:51:05.752Z,3.50
2023-05-15T11:52:05.757Z,4.20
2023-05-15T11:53:05.724Z,3.70
2023-05-15T11:54:06.312Z,3.30
2023-05-15T11:55:05.720Z,3.70
2023-05-15T11:56:05.688Z,3.40
2023-05-15T11:57:05.705Z,3.50
2023-05-15T11:58:05.666Z,3.50
2023-05-15T11:59:05.662Z,3.50
2023-05-15T12:00:05.648Z,3.40
2023-05-15T12:01:05.657Z,3.60
2023-05-15T12:02:05.639Z,3.80
2023-05-15T12:03:05.688Z,3.50
2023-05-15T12:04:05.764Z,3.80
2023-05-15T12:05:05.734Z,3.50
2023-05-15T12:06:05.606Z,4.10
2023-05-15T12:07:05.566Z,3.80
2023-05-15T12:08:05.555Z,3.80
2023-05-15T12:09:05.553Z,3.70
2023-05-15T12:10:05.536Z,3.90
2023-05-15T12:11:05.594Z,3.90
2023-05-15T12:12:05.524Z,3.30
2023-05-15T12:13:05.501Z,3.60
2023-05-15T12:14:05.496Z,3.70
2023-05-15T12:15:05.493Z,3.50
2023-05-15T12:16:05.565Z,3.50
2023-05-15T12:17:05.475Z,3.80
2023-05-15T12:18:05.506Z,3.50
2023-05-15T12:19:05.516Z,3.60
2023-05-15T12:20:05.433Z,3.30
2023-05-15T12:21:05.423Z,3.70
2023-05-15T12:22:05.410Z,3.50
2023-05-15T12:23:05.386Z,3.70
2023-05-15T12:24:08.132Z,3.60
2023-05-15T12:25:05.389Z,3.60
2023-05-15T12:26:05.355Z,4.10
2023-05-15T12:27:05.367Z,3.80
2023-05-15T12:28:05.345Z,4.10
2023-05-15T12:29:05.803Z,3.60
2023-05-15T12:30:05.319Z,3.80
2023-05-15T12:31:05.300Z,3.90
2023-05-15T12:32:05.373Z,3.70
2023-05-15T12:33:05.297Z,3.80
2023-05-15T12:34:05.301Z,3.70
2023-05-15T12:35:05.258Z,3.60
2023-05-15T12:36:05.250Z,3.90
2023-05-15T12:37:05.236Z,3.80
2023-05-15T12:38:05.222Z,3.90
2023-05-15T12:39:05.227Z,4.10
2023-05-15T12:40:05.206Z,4.30
2023-05-15T12:41:05.194Z,4.00
2023-05-15T12:42:05.184Z,4.00
2023-05-15T12:43:05.193Z,3.90
2023-05-15T12:44:05.180Z,3.90
2023-05-15T12:45:05.142Z,4.20
2023-05-15T12:46:05.180Z,3.60
2023-05-15T12:47:05.120Z,3.80
2023-05-15T12:48:05.278Z,4.00
2023-05-15T12:49:05.104Z,3.70
2023-05-15T12:50:05.091Z,4.10
2023-05-15T12:51:05.085Z,4.30
2023-05-15T12:52:05.068Z,4.00
2023-05-15T12:53:05.464Z,3.80
2023-05-15T12:54:05.041Z,4.30
2023-05-15T12:55:05.028Z,4.30
2023-05-15T12:56:05.016Z,4.00
2023-05-15T12:57:05.010Z,3.80
2023-05-15T12:58:05.013Z,4.40
2023-05-15T12:59:05.090Z,3.70
2023-05-15T13:00:04.971Z,3.90
2023-05-15T13:01:04.984Z,4.00
2023-05-15T13:02:04.976Z,3.70
2023-05-15T13:03:05.043Z,3.80
2023-05-15T13:04:04.958Z,3.80
2023-05-15T13:05:04.916Z,4.00
2023-05-15T13:06:04.929Z,3.90
2023-05-15T13:07:04.911Z,3.70
2023-05-15T13:08:04.881Z,4.50
2023-05-15T13:09:04.879Z,3.40
2023-05-15T13:10:04.856Z,3.40
2023-05-15T13:11:04.844Z,3.80
2023-05-15T13:12:04.862Z,3.60
2023-05-15T13:13:04.828Z,4.20
2023-05-15T13:14:04.819Z,4.00
2023-05-15T13:15:04.842Z,3.60
2023-05-15T13:16:04.901Z,3.70
2023-05-15T13:17:04.806Z,3.90
2023-05-15T13:18:04.838Z,3.90
2023-05-15T13:19:04.810Z,4.30
2023-05-15T13:20:04.743Z,4.20
2023-05-15T13:21:04.764Z,3.80
2023-05-15T13:22:04.717Z,3.70
2023-05-15T13:23:04.713Z,4.00